Time;durP1;ratioP1;P1;durP2;ratioP2;P2;SDS_P1;SDS_P2;PMS_P1;PMS_P2;Temp;Humidity;BMP_temperature;BMP_pressure;BME280_temperature;BME280_humidity;BME280_pressure;Samples;Min_cycle;Max_cycle;Signal;HPM_P1;HPM_P2
2022/06/04 00:01:00;;;;;;;3.55;3.25;;;17.60;81.50;;;;;;5078826;28;20209;-70
2022/06/04 00:03:27;;;;;;;4.45;4.05;;;17.60;81.60;;;;;;5078306;28;20220;-69
2022/06/04 00:05:57;;;;;;;4.15;3.75;;;17.60;81.80;;;;;;5078535;28;20207;-68
2022/06/04 00:08:24;;;;;;;4.03;3.33;;;17.50;82.00;;;;;;5075202;28;20205;-69
2022/06/04 00:16:30;;;;;;;3.97;3.53;;;17.50;82.70;;;;;;5060134;28;20228;-69
2022/06/04 00:18:59;;;;;;;6.70;3.58;;;17.50;82.80;;;;;;5075631;28;20653;-69
2022/06/04 00:21:26;;;;;;;4.78;3.05;;;17.40;83.30;;;;;;5078063;28;20567;-69
2022/06/04 00:23:53;;;;;;;3.60;3.30;;;17.40;83.50;;;;;;5075630;28;20319;-68
2022/06/04 00:26:20;;;;;;;4.95;3.00;;;17.40;83.80;;;;;;5083143;28;20232;-69
2022/06/04 00:28:48;;;;;;;3.38;3.05;;;17.40;83.90;;;;;;5074325;28;20732;-68
2022/06/04 00:31:16;;;;;;;3.60;3.30;;;17.30;83.90;;;;;;5078751;28;20201;-69
2022/06/04 00:33:43;;;;;;;4.47;3.00;;;17.40;84.10;;;;;;5070321;28;20212;-68
2022/06/04 00:36:10;;;;;;;3.30;2.88;;;17.40;85.00;;;;;;5074424;28;20197;-69
2022/06/04 00:38:38;;;;;;;4.32;2.80;;;17.30;84.20;;;;;;5075677;28;20633;-69
2022/06/04 00:41:21;;;;;;;3.50;2.92;;;17.30;84.20;;;;;;5076189;28;20295;-69
2022/06/04 00:44:19;;;;;;;2.88;2.65;;;17.20;84.20;;;;;;5074064;28;20205;-69
2022/06/04 00:47:10;;;;;;;3.58;3.28;;;17.30;84.40;;;;;;5065340;28;20233;-70
2022/06/04 00:49:37;;;;;;;4.55;3.13;;;17.30;84.50;;;;;;5063711;28;20300;-70
2022/06/04 00:52:08;;;;;;;5.30;2.90;;;17.30;84.50;;;;;;5071938;28;20202;-70
2022/06/04 00:54:35;;;;;;;3.17;2.97;;;17.30;84.50;;;;;;5074384;28;20228;-70
2022/06/04 00:57:16;;;;;;;3.50;2.83;;;17.30;84.80;;;;;;5075330;28;20209;-70
2022/06/04 00:59:52;;;;;;;3.20;2.90;;;17.30;85.00;;;;;;5074489;28;20671;-69
2022/06/04 01:02:28;;;;;;;3.08;2.75;;;17.20;84.90;;;;;;5076170;28;20663;-69
2022/06/04 01:05:07;;;;;;;2.95;2.65;;;17.20;84.90;;;;;;5063635;28;20201;-69
2022/06/04 01:07:58;;;;;;;2.93;2.73;;;17.20;84.90;;;;;;5079701;28;20213;-69
2022/06/04 01:10:38;;;;;;;3.88;2.88;;;17.20;84.90;;;;;;5088150;28;20205;-69
2022/06/04 01:13:19;;;;;;;3.10;2.75;;;17.20;84.90;;;;;;5077702;28;20197;-69
2022/06/04 01:15:53;;;;;;;3.38;2.92;;;17.20;84.90;;;;;;5078245;28;20251;-69
2022/06/04 01:18:31;;;;;;;2.97;2.70;;;17.20;84.50;;;;;;5074788;28;20200;-69
2022/06/04 01:21:03;;;;;;;4.30;2.85;;;17.20;84.40;;;;;;5077773;28;20208;-70
2022/06/04 01:24:06;;;;;;;2.75;2.53;;;17.30;84.50;;;;;;5065385;28;20209;-69
2022/06/04 01:27:07;;;;;;;2.90;2.70;;;17.20;84.40;;;;;;5066345;28;20249;-69
2022/06/04 01:29:38;;;;;;;3.40;3.10;;;17.20;84.40;;;;;;5069545;28;20721;-70
2022/06/04 01:32:09;;;;;;;3.00;2.60;;;17.20;84.60;;;;;;5079470;28;20201;-70
2022/06/04 01:34:39;;;;;;;3.17;2.70;;;17.20;84.60;;;;;;5079464;28;20562;-69
2022/06/04 01:37:14;;;;;;;3.20;2.90;;;17.20;84.60;;;;;;5076593;28;20232;-69
2022/06/04 01:42:34;;;;;;;3.33;2.60;;;17.20;84.70;;;;;;5079227;28;20205;-70
2022/06/04 01:45:03;;;;;;;5.53;2.92;;;17.20;84.60;;;;;;5090458;28;20252;-70
2022/06/04 01:47:32;;;;;;;3.25;2.88;;;17.20;84.40;;;;;;5085049;28;20224;-69
2022/06/04 01:50:02;;;;;;;2.58;2.38;;;17.10;84.30;;;;;;5088326;28;20231;-69
2022/06/04 01:52:33;;;;;;;3.40;3.05;;;17.20;84.40;;;;;;5077592;28;20197;-69
2022/06/04 01:55:05;;;;;;;3.35;2.60;;;17.10;84.30;;;;;;5077944;28;20224;-69
2022/06/04 01:57:37;;;;;;;3.42;3.13;;;17.10;84.30;;;;;;5078174;28;20205;-69
2022/06/04 02:00:09;;;;;;;3.30;3.00;;;17.10;84.40;;;;;;5078665;28;20213;-70
2022/06/04 02:02:40;;;;;;;3.47;3.17;;;17.10;84.60;;;;;;5074915;28;20651;-69
2022/06/04 02:05:12;;;;;;;4.88;3.08;;;17.10;84.80;;;;;;5076323;28;20215;-69
2022/06/04 02:07:43;;;;;;;4.25;2.97;;;17.10;84.80;;;;;;5077351;28;20275;-69
2022/06/04 02:10:15;;;;;;;3.22;2.92;;;17.10;85.10;;;;;;5077054;28;20223;-68
2022/06/04 02:12:45;;;;;;;3.80;3.10;;;17.00;85.40;;;;;;5076801;28;20213;-69
2022/06/04 02:15:16;;;;;;;3.53;3.17;;;17.00;85.80;;;;;;5078212;28;20205;-70
2022/06/04 02:17:46;;;;;;;4.35;3.00;;;17.00;86.10;;;;;;5077641;28;20213;-69
2022/06/04 02:20:14;;;;;;;4.50;3.50;;;17.00;86.20;;;;;;5078190;28;20654;-69
2022/06/04 02:22:41;;;;;;;3.47;3.10;;;16.90;86.40;;;;;;5072427;28;20611;-69
2022/06/04 02:25:11;;;;;;;3.25;2.92;;;17.00;86.70;;;;;;5077829;28;20209;-70
2022/06/04 02:27:40;;;;;;;4.50;3.17;;;16.90;86.80;;;;;;5078615;28;20308;-70
2022/06/04 02:30:11;;;;;;;3.75;2.80;;;16.90;87.10;;;;;;5077903;28;20225;-70
2022/06/04 02:32:44;;;;;;;3.08;2.80;;;16.90;87.20;;;;;;5078601;28;20244;-71
2022/06/04 02:35:17;;;;;;;4.25;3.20;;;16.80;87.10;;;;;;5077302;28;20198;-72
2022/06/04 02:37:50;;;;;;;3.87;2.63;;;16.80;87.30;;;;;;5077077;28;20604;-72
2022/06/04 02:40:22;;;;;;;4.57;3.47;;;16.80;87.60;;;;;;5077786;28;20198;-72
2022/06/04 02:42:55;;;;;;;3.80;3.28;;;16.80;87.70;;;;;;5078947;28;20205;-72
2022/06/04 02:45:28;;;;;;;3.10;2.90;;;16.80;87.80;;;;;;5076990;28;20217;-71
2022/06/04 02:47:59;;;;;;;4.23;2.90;;;16.80;88.00;;;;;;5078650;28;20217;-73
2022/06/04 02:50:32;;;;;;;3.30;3.00;;;16.80;88.10;;;;;;5085775;28;20787;-72
2022/06/04 02:53:01;;;;;;;5.35;3.00;;;16.80;88.20;;;;;;5067857;28;20296;-72
2022/06/04 02:55:33;;;;;;;6.90;2.85;;;16.80;88.20;;;;;;5076564;28;20216;-71
2022/06/04 02:58:07;;;;;;;3.67;2.93;;;16.80;88.30;;;;;;5090058;28;20196;-73
2022/06/04 03:00:36;;;;;;;3.95;2.70;;;16.90;88.50;;;;;;5077087;28;20197;-72
2022/06/04 03:03:03;;;;;;;4.15;3.13;;;16.80;88.40;;;;;;5092443;28;20633;-73
2022/06/04 03:05:30;;;;;;;3.60;3.23;;;16.80;88.70;;;;;;5077157;28;20205;-72
2022/06/04 03:08:01;;;;;;;3.03;2.83;;;16.80;88.70;;;;;;5076891;28;20218;-72
2022/06/04 03:10:30;;;;;;;3.53;3.23;;;16.90;88.90;;;;;;5076410;28;20212;-73
2022/06/04 03:12:57;;;;;;;3.07;2.77;;;16.90;89.10;;;;;;5079141;28;20204;-73
2022/06/04 03:15:25;;;;;;;6.93;3.13;;;16.90;89.10;;;;;;5084517;28;20229;-73
2022/06/04 03:17:53;;;;;;;3.45;3.15;;;16.90;89.30;;;;;;5076231;28;20209;-72
2022/06/04 03:20:26;;;;;;;3.35;3.05;;;16.90;89.60;;;;;;5073018;28;20212;-73
2022/06/04 03:22:54;;;;;;;3.27;2.97;;;16.90;89.70;;;;;;5072893;28;20205;-74
2022/06/04 03:25:21;;;;;;;4.45;3.00;;;16.90;89.90;;;;;;5075736;28;20208;-74
2022/06/04 03:27:49;;;;;;;3.17;2.97;;;17.00;90.00;;;;;;5076722;28;20225;-73
2022/06/04 03:30:16;;;;;;;6.28;3.35;;;17.00;90.00;;;;;;5077039;28;20231;-73
2022/06/04 03:32:43;;;;;;;3.33;3.00;;;17.10;90.00;;;;;;5077418;28;20221;-72
2022/06/04 03:35:13;;;;;;;2.97;2.73;;;17.10;90.10;;;;;;5075596;28;20526;-73
2022/06/04 03:37:40;;;;;;;3.80;2.90;;;17.10;90.10;;;;;;5079866;28;20237;-72
2022/06/04 03:40:09;;;;;;;3.33;2.90;;;17.10;90.10;;;;;;5064676;28;20220;-72
2022/06/04 03:42:36;;;;;;;3.00;2.80;;;17.10;90.20;;;;;;5076403;28;20201;-73
2022/06/04 03:45:04;;;;;;;3.40;3.08;;;17.10;90.20;;;;;;5074783;28;20201;-73
2022/06/04 03:47:36;;;;;;;3.30;2.83;;;17.10;90.30;;;;;;5087399;28;20225;-68
2022/06/04 03:50:03;;;;;;;3.67;2.97;;;17.20;90.40;;;;;;5084240;28;20288;-68
2022/06/04 03:52:32;;;;;;;2.90;2.70;;;17.20;90.40;;;;;;5078028;28;20576;-68
2022/06/04 03:54:58;;;;;;;3.20;2.87;;;17.30;90.40;;;;;;5074209;28;20220;-69
2022/06/04 03:57:41;;;;;;;4.70;2.92;;;17.30;90.40;;;;;;5060752;28;20209;-69
2022/06/04 04:00:14;;;;;;;4.10;3.00;;;17.30;90.40;;;;;;5084316;28;20239;-68
2022/06/04 04:02:41;;;;;;;3.55;2.95;;;17.40;90.40;;;;;;5066438;28;20212;-69
2022/06/04 04:05:09;;;;;;;3.55;3.25;;;17.40;90.40;;;;;;5075257;28;20212;-69
2022/06/04 04:07:38;;;;;;;4.13;3.05;;;17.60;90.50;;;;;;5072890;28;20231;-69
2022/06/04 04:10:06;;;;;;;3.47;3.17;;;17.60;90.40;;;;;;5075066;28;20270;-71
2022/06/04 04:12:33;;;;;;;3.20;3.00;;;17.70;90.30;;;;;;5075038;28;20606;-72
2022/06/04 04:15:00;;;;;;;5.78;2.95;;;17.80;90.30;;;;;;5074743;28;20575;-72
2022/06/04 04:17:27;;;;;;;5.05;3.13;;;17.90;90.30;;;;;;5074607;28;20201;-71
2022/06/04 04:19:54;;;;;;;3.50;3.20;;;18.00;90.10;;;;;;5075098;28;20211;-72
2022/06/04 04:22:21;;;;;;;3.05;2.75;;;18.00;90.00;;;;;;5070303;28;20220;-72
2022/06/04 04:24:49;;;;;;;4.13;3.03;;;18.10;90.00;;;;;;5065520;28;20658;-72
2022/06/04 04:27:17;;;;;;;3.30;3.08;;;18.20;90.00;;;;;;5073952;28;20201;-72
2022/06/04 04:29:44;;;;;;;3.60;3.30;;;18.20;89.90;;;;;;5068864;28;20324;-72
2022/06/04 04:32:10;;;;;;;3.65;3.25;;;18.30;89.90;;;;;;5079195;28;20217;-72
2022/06/04 04:34:37;;;;;;;3.50;3.20;;;18.30;89.80;;;;;;5073959;28;20216;-72
2022/06/04 04:37:05;;;;;;;3.70;3.15;;;18.30;89.80;;;;;;5073398;28;20208;-71
2022/06/04 04:39:31;;;;;;;4.85;3.00;;;18.40;90.00;;;;;;5066049;28;20212;-73
2022/06/04 04:41:59;;;;;;;4.82;3.38;;;18.40;90.00;;;;;;5070893;28;20209;-74
2022/06/04 04:44:26;;;;;;;7.13;3.30;;;18.40;90.00;;;;;;5086160;28;20672;-72
2022/06/04 04:46:53;;;;;;;11.52;3.20;;;18.50;90.00;;;;;;5085579;28;20235;-73
2022/06/04 04:49:20;;;;;;;3.83;3.10;;;18.50;89.90;;;;;;5078573;28;20225;-72
2022/06/04 04:51:47;;;;;;;4.57;3.20;;;18.60;89.90;;;;;;5075891;28;20212;-72
2022/06/04 04:54:14;;;;;;;3.42;3.13;;;18.60;89.70;;;;;;5079851;28;20231;-73
2022/06/04 04:56:41;;;;;;;3.90;3.10;;;18.70;89.80;;;;;;5087711;28;20211;-72
2022/06/04 04:59:10;;;;;;;4.50;3.28;;;18.80;89.90;;;;;;5078773;28;20220;-73
2022/06/04 05:01:37;;;;;;;4.30;3.22;;;18.80;89.60;;;;;;5078112;28;20299;-73
2022/06/04 05:04:04;;;;;;;3.85;3.00;;;18.80;89.50;;;;;;5079431;28;20574;-72
2022/06/04 05:06:32;;;;;;;3.33;3.03;;;18.90;89.20;;;;;;5079752;28;20286;-71
2022/06/04 05:08:59;;;;;;;3.13;2.90;;;18.90;89.20;;;;;;5082199;28;20233;-72
2022/06/04 05:11:28;;;;;;;3.75;3.38;;;19.00;89.30;;;;;;5081681;28;20208;-72
2022/06/04 05:13:56;;;;;;;5.55;3.50;;;19.00;89.30;;;;;;5094861;28;20196;-71
2022/06/04 05:16:27;;;;;;;3.47;3.17;;;19.10;89.10;;;;;;5084188;28;20240;-72
2022/06/04 05:18:53;;;;;;;5.15;3.03;;;19.10;89.90;;;;;;5075609;28;20201;-71
2022/06/04 05:21:22;;;;;;;4.60;3.50;;;19.20;89.10;;;;;;5073454;28;20209;-72
2022/06/04 05:23:50;;;;;;;4.03;3.30;;;19.20;89.00;;;;;;5079765;28;20212;-72
2022/06/04 05:26:17;;;;;;;3.42;3.13;;;19.20;89.10;;;;;;5074401;28;20270;-72
2022/06/04 05:28:44;;;;;;;3.42;3.13;;;19.20;89.10;;;;;;5074147;28;20229;-68
2022/06/04 05:31:12;;;;;;;4.13;3.35;;;19.30;89.20;;;;;;5075376;28;20212;-71
2022/06/04 05:33:40;;;;;;;4.00;3.60;;;19.30;89.20;;;;;;5088696;28;20592;-71
2022/06/04 05:36:07;;;;;;;5.05;3.42;;;19.40;89.10;;;;;;5076612;28;20248;-72
2022/06/04 05:38:36;;;;;;;4.30;3.75;;;19.50;89.00;;;;;;5090665;28;20213;-73
2022/06/04 05:41:06;;;;;;;4.32;3.80;;;19.60;89.00;;;;;;5079803;28;20253;-73
2022/06/04 05:43:33;;;;;;;4.38;3.97;;;19.60;88.90;;;;;;5078201;28;20205;-68
2022/06/04 05:46:01;;;;;;;4.05;3.65;;;19.70;88.50;;;;;;5076188;28;20213;-68
2022/06/04 05:48:28;;;;;;;5.10;3.45;;;19.80;88.50;;;;;;5075804;28;20231;-68
2022/06/04 05:50:57;;;;;;;4.90;4.50;;;19.80;88.70;;;;;;5081636;28;20709;-69
2022/06/04 05:53:25;;;;;;;4.95;4.25;;;19.90;88.60;;;;;;5080546;28;20251;-68
2022/06/04 05:55:52;;;;;;;4.68;4.28;;;19.90;88.60;;;;;;5083592;28;21116;-68
2022/06/04 05:58:19;;;;;;;4.40;4.00;;;19.90;88.50;;;;;;5089207;28;20665;-69
2022/06/04 06:00:46;;;;;;;4.28;3.97;;;20.00;88.80;;;;;;5083558;28;20212;-69
2022/06/04 06:03:13;;;;;;;5.75;4.57;;;20.10;88.80;;;;;;5085305;28;20577;-69
2022/06/04 06:05:42;;;;;;;5.22;4.22;;;20.10;88.80;;;;;;5074053;28;20201;-69
2022/06/04 06:08:10;;;;;;;4.55;4.15;;;20.20;88.70;;;;;;5077482;28;20289;-68
2022/06/04 06:10:40;;;;;;;5.95;4.30;;;20.30;88.80;;;;;;5074296;28;20213;-73
2022/06/04 06:13:07;;;;;;;3.97;3.55;;;20.30;88.70;;;;;;5067939;28;20202;-73
2022/06/04 06:15:34;;;;;;;4.30;3.90;;;20.40;88.60;;;;;;5084078;28;20237;-69
2022/06/04 06:18:01;;;;;;;6.65;3.55;;;20.40;88.50;;;;;;5087446;28;20212;-68
2022/06/04 06:20:28;;;;;;;3.67;3.38;;;20.50;88.70;;;;;;5081083;28;20205;-68
2022/06/04 06:22:55;;;;;;;6.32;3.95;;;20.50;88.80;;;;;;5077210;28;20230;-69
2022/06/04 06:25:24;;;;;;;5.03;3.90;;;20.70;89.30;;;;;;5072613;28;20246;-69
2022/06/04 06:27:50;;;;;;;4.85;3.72;;;20.80;89.20;;;;;;5077959;28;20613;-69
2022/06/04 06:30:17;;;;;;;4.35;3.95;;;20.80;88.90;;;;;;5073030;28;20218;-68
2022/06/04 06:32:44;;;;;;;5.55;3.95;;;20.90;88.80;;;;;;5075071;28;20209;-69
2022/06/04 06:35:11;;;;;;;4.13;3.65;;;21.00;88.60;;;;;;5075601;28;20225;-69
2022/06/04 06:37:38;;;;;;;7.72;5.07;;;21.20;88.70;;;;;;5071045;28;20232;-69
2022/06/04 06:40:07;;;;;;;5.13;3.97;;;21.30;89.10;;;;;;5082417;28;20196;-68
2022/06/04 06:42:35;;;;;;;5.93;4.20;;;21.40;88.80;;;;;;5074963;28;20215;-69
2022/06/04 06:45:02;;;;;;;5.30;3.90;;;21.50;88.70;;;;;;5074927;28;20205;-68
2022/06/04 06:47:32;;;;;;;4.70;3.70;;;21.60;87.10;;;;;;5068755;28;20209;-68
2022/06/04 06:50:00;;;;;;;4.47;3.65;;;21.60;86.30;;;;;;5063850;28;20229;-68
2022/06/04 06:52:27;;;;;;;5.30;3.60;;;21.60;86.00;;;;;;5070886;28;20602;-69
2022/06/04 06:54:53;;;;;;;4.35;3.90;;;21.70;86.60;;;;;;5072062;28;20216;-69
2022/06/04 06:57:20;;;;;;;3.78;3.40;;;21.80;86.90;;;;;;5072492;28;20220;-68
2022/06/04 06:59:49;;;;;;;4.38;3.42;;;21.90;86.80;;;;;;5067053;28;20237;-68
2022/06/04 07:02:16;;;;;;;3.03;2.67;;;22.00;86.20;;;;;;5072087;28;20628;-68
2022/06/04 07:04:43;;;;;;;4.38;3.13;;;22.10;86.10;;;;;;5074379;28;20209;-68
2022/06/04 07:07:09;;;;;;;4.13;2.92;;;22.20;85.10;;;;;;5072758;28;20554;-67
2022/06/04 07:09:39;;;;;;;5.38;3.38;;;22.30;83.50;;;;;;5069246;28;20260;-69
2022/06/04 07:12:08;;;;;;;3.45;3.15;;;22.40;83.30;;;;;;5059909;28;20214;-69
2022/06/04 07:14:35;;;;;;;3.63;2.90;;;22.50;83.40;;;;;;5067800;28;20205;-70
2022/06/04 07:17:05;;;;;;;3.85;3.20;;;22.70;83.40;;;;;;5071606;28;20615;-69
2022/06/04 07:19:32;;;;;;;3.60;3.28;;;22.90;82.50;;;;;;5072939;28;20696;-71
2022/06/04 07:21:59;;;;;;;4.63;3.08;;;23.00;82.00;;;;;;5074680;28;20223;-70
2022/06/04 07:24:26;;;;;;;3.83;3.00;;;23.20;81.10;;;;;;5072249;28;20209;-70
2022/06/04 07:26:53;;;;;;;3.03;2.83;;;23.20;80.90;;;;;;5065021;28;20206;-71
2022/06/04 07:29:20;;;;;;;5.22;3.08;;;23.30;80.70;;;;;;5064932;28;20225;-71
2022/06/04 07:31:47;;;;;;;3.53;3.22;;;23.40;80.30;;;;;;5077121;28;20573;-72
2022/06/04 07:34:15;;;;;;;4.18;3.20;;;23.50;80.30;;;;;;5074881;28;20209;-68
2022/06/04 07:36:44;;;;;;;4.45;3.17;;;23.60;80.60;;;;;;5069519;28;20669;-74
2022/06/04 07:39:14;;;;;;;3.13;2.90;;;23.70;80.30;;;;;;5069843;28;20205;-69
2022/06/04 07:41:43;;;;;;;4.28;2.97;;;23.80;79.80;;;;;;5065843;28;20826;-69
2022/06/04 07:44:11;;;;;;;3.42;3.10;;;23.90;79.20;;;;;;5074649;28;20197;-69
2022/06/04 07:46:40;;;;;;;4.30;3.20;;;23.90;79.10;;;;;;5071105;28;20581;-70
2022/06/04 07:49:08;;;;;;;5.82;3.70;;;24.00;79.10;;;;;;5069940;28;20252;-72
2022/06/04 07:51:37;;;;;;;6.53;2.97;;;24.00;78.40;;;;;;5074777;28;20244;-72
2022/06/04 07:54:08;;;;;;;2.90;2.70;;;24.20;78.30;;;;;;5076786;28;20204;-69
2022/06/04 07:56:35;;;;;;;4.78;3.00;;;24.20;78.20;;;;;;5078440;28;20211;-69
2022/06/04 07:59:02;;;;;;;3.20;2.90;;;24.30;78.50;;;;;;5076581;28;20201;-69
2022/06/04 08:01:29;;;;;;;4.63;3.20;;;24.50;78.20;;;;;;5074625;28;20210;-70
2022/06/04 08:03:56;;;;;;;3.00;2.70;;;24.60;77.40;;;;;;5072359;28;20630;-69
2022/06/04 08:06:24;;;;;;;3.35;3.05;;;24.60;76.90;;;;;;5073888;28;20220;-67
2022/06/04 08:08:55;;;;;;;4.45;3.17;;;24.70;76.90;;;;;;5077186;28;20228;-67
2022/06/04 08:11:32;;;;;;;7.45;3.15;;;24.90;76.80;;;;;;5076737;28;20567;-68
2022/06/04 08:13:59;;;;;;;7.90;3.45;;;24.90;76.80;;;;;;5063083;28;20209;-69
2022/06/04 08:16:27;;;;;;;3.00;2.75;;;25.00;76.70;;;;;;5072285;28;20233;-69
2022/06/04 08:18:54;;;;;;;5.20;3.50;;;25.10;76.20;;;;;;5080582;28;20715;-67
2022/06/04 08:21:20;;;;;;;3.63;3.30;;;25.10;75.70;;;;;;5076396;28;20583;-67
2022/06/04 08:23:47;;;;;;;5.15;3.42;;;25.00;75.80;;;;;;5070383;28;20205;-70
2022/06/04 08:26:16;;;;;;;4.13;2.95;;;24.90;75.50;;;;;;5061349;28;20228;-71
2022/06/04 08:28:42;;;;;;;3.22;2.90;;;24.80;75.30;;;;;;5066020;28;20324;-69
2022/06/04 08:31:12;;;;;;;2.88;2.63;;;24.60;76.40;;;;;;5072309;28;20575;-70
2022/06/04 08:33:39;;;;;;;3.05;2.67;;;24.60;76.50;;;;;;5073189;28;20653;-69
2022/06/04 08:36:08;;;;;;;4.15;3.03;;;24.50;75.70;;;;;;5076123;28;20204;-70
2022/06/04 08:38:35;;;;;;;3.35;3.15;;;24.40;75.90;;;;;;5074836;28;20216;-69
2022/06/04 08:41:05;;;;;;;4.38;3.03;;;24.30;77.20;;;;;;5069016;28;20270;-67
2022/06/04 08:43:42;;;;;;;3.35;2.97;;;24.30;77.20;;;;;;5073897;28;20201;-68
2022/06/04 08:46:16;;;;;;;3.72;3.13;;;24.20;77.00;;;;;;5069692;28;20196;-69
2022/06/04 08:48:45;;;;;;;6.07;3.38;;;24.20;76.70;;;;;;5067201;28;20249;-68
2022/06/04 08:51:21;;;;;;;5.25;3.42;;;24.20;76.80;;;;;;5074120;28;20210;-69
2022/06/04 08:53:52;;;;;;;4.75;3.03;;;24.20;77.60;;;;;;5072233;28;20204;-68
2022/06/04 08:59:19;;;;;;;4.20;3.40;;;24.10;77.80;;;;;;5081899;28;20200;-71
2022/06/04 09:01:52;;;;;;;4.40;3.20;;;24.10;78.30;;;;;;5084130;28;20663;-70
2022/06/04 09:04:42;;;;;;;5.28;3.17;;;24.10;78.30;;;;;;5080205;28;20208;-69
2022/06/04 09:07:13;;;;;;;4.18;3.33;;;24.00;78.50;;;;;;5079782;28;20192;-69
2022/06/04 09:09:44;;;;;;;5.38;4.13;;;24.00;79.20;;;;;;5081964;28;20474;-68
2022/06/04 09:12:32;;;;;;;6.18;3.75;;;24.00;79.20;;;;;;5082123;28;20204;-70
2022/06/04 09:15:03;;;;;;;7.65;4.20;;;24.00;79.50;;;;;;5073288;28;20213;-70
2022/06/04 09:17:38;;;;;;;4.70;3.17;;;24.00;79.60;;;;;;5032901;28;20539;-70
2022/06/04 09:20:19;;;;;;;6.93;3.85;;;24.00;79.20;;;;;;5020602;28;20655;-71
2022/06/04 09:22:48;;;;;;;7.72;4.20;;;23.90;79.50;;;;;;5028431;28;20269;-71
2022/06/04 09:25:17;;;;;;;3.92;3.10;;;24.00;80.20;;;;;;5034121;28;20202;-71
2022/06/04 09:27:51;;;;;;;4.95;3.95;;;24.00;80.30;;;;;;5029979;28;20217;-70
2022/06/04 09:30:26;;;;;;;3.55;3.22;;;24.00;80.30;;;;;;5032955;28;20217;-70
2022/06/04 09:33:19;;;;;;;4.68;3.60;;;24.00;80.20;;;;;;5043082;28;20197;-70
2022/06/04 09:35:47;;;;;;;4.43;2.65;;;24.00;80.20;;;;;;5042771;28;20219;-69
2022/06/04 09:38:27;;;;;;;4.25;2.72;;;24.00;80.10;;;;;;5036722;28;20219;-69
2022/06/04 09:40:59;;;;;;;3.08;2.65;;;24.00;80.30;;;;;;5042069;28;20221;-68
2022/06/04 09:43:26;;;;;;;5.25;2.95;;;24.00;80.50;;;;;;5033154;28;20210;-68
2022/06/04 09:46:00;;;;;;;7.97;3.10;;;24.00;81.00;;;;;;5036273;28;20226;-69
2022/06/04 09:48:32;;;;;;;6.32;3.25;;;23.90;81.30;;;;;;5036225;28;20210;-71
2022/06/04 09:51:01;;;;;;;3.47;3.17;;;23.90;81.60;;;;;;5037899;28;20218;-70
2022/06/04 09:53:31;;;;;;;4.43;2.95;;;23.90;81.70;;;;;;5042013;28;20603;-70
2022/06/04 09:56:06;;;;;;;5.20;3.15;;;23.90;82.00;;;;;;5040419;28;20203;-72
2022/06/04 09:58:35;;;;;;;6.50;3.50;;;23.90;81.70;;;;;;5052066;28;20232;-72
2022/06/04 10:01:06;;;;;;;3.72;2.90;;;23.90;81.70;;;;;;5040534;28;20202;-74
2022/06/04 10:03:36;;;;;;;5.65;3.05;;;23.90;81.90;;;;;;5038853;28;20583;-70
2022/06/04 10:06:06;;;;;;;4.60;3.10;;;23.80;82.60;;;;;;5033443;28;20207;-70
2022/06/04 10:11:20;;;;;;;6.53;4.38;;;23.90;82.40;;;;;;5028352;28;20233;-70
2022/06/04 10:13:50;;;;;;;7.15;3.95;;;23.90;82.20;;;;;;5048297;28;20205;-70
2022/06/04 10:16:22;;;;;;;7.82;4.43;;;23.90;82.10;;;;;;5066320;28;20233;-72
2022/06/04 10:18:58;;;;;;;16.85;6.47;;;24.00;82.50;;;;;;5056564;28;20583;-70
2022/06/04 10:21:28;;;;;;;10.77;5.25;;;24.00;84.10;;;;;;5069646;28;20205;-70
2022/06/04 10:23:58;;;;;;;7.28;3.10;;;24.00;84.90;;;;;;5085398;28;20212;-69
2022/06/04 10:26:38;;;;;;;6.07;3.47;;;24.10;85.30;;;;;;5073904;28;20568;-69
2022/06/04 10:29:32;;;;;;;6.60;3.45;;;24.10;84.50;;;;;;5080999;28;20654;-68
2022/06/04 10:32:11;;;;;;;4.32;3.13;;;24.20;85.30;;;;;;5075113;28;20217;-68
2022/06/04 10:34:45;;;;;;;3.28;2.80;;;24.20;84.10;;;;;;5076416;28;20209;-67
2022/06/04 10:37:28;;;;;;;5.40;4.53;;;24.10;82.90;;;;;;5074906;28;20288;-67
2022/06/04 10:40:07;;;;;;;7.82;5.78;;;24.10;84.70;;;;;;5078279;28;20201;-68
2022/06/04 10:42:46;;;;;;;9.35;5.25;;;24.00;85.70;;;;;;5079389;28;20204;-68
2022/06/04 10:45:18;;;;;;;5.65;5.15;;;24.00;87.50;;;;;;5086567;28;20631;-67
2022/06/04 10:47:51;;;;;;;6.60;5.40;;;23.90;88.30;;;;;;5078709;28;20637;-68
2022/06/04 10:53:31;;;;;;;8.65;6.05;;;23.70;89.30;;;;;;5068964;28;20246;-69
2022/06/04 10:56:06;;;;;;;8.75;6.25;;;23.60;89.40;;;;;;5063136;28;20276;-70
2022/06/04 10:58:39;;;;;;;8.52;5.78;;;23.60;89.50;;;;;;5074793;28;20204;-69
2022/06/04 11:01:12;;;;;;;8.00;5.80;;;23.60;89.70;;;;;;5073801;28;20201;-69
2022/06/04 11:03:51;;;;;;;7.72;5.63;;;23.60;89.80;;;;;;5063079;28;20201;-71
2022/06/04 11:06:23;;;;;;;6.70;5.78;;;23.60;90.00;;;;;;5086318;28;20326;-71
2022/06/04 11:08:55;;;;;;;6.47;5.65;;;23.60;90.10;;;;;;5075927;28;20237;-71
2022/06/04 11:11:27;;;;;;;6.60;6.00;;;23.60;90.20;;;;;;5076059;28;20220;-72
2022/06/04 11:13:58;;;;;;;6.43;5.80;;;23.60;90.50;;;;;;5073275;28;20624;-72
2022/06/04 11:16:29;;;;;;;8.07;6.00;;;23.60;90.60;;;;;;5085198;28;20229;-71
2022/06/04 11:19:00;;;;;;;8.77;6.55;;;23.60;90.50;;;;;;5076156;28;20201;-70
2022/06/04 11:21:33;;;;;;;11.63;6.78;;;23.70;90.40;;;;;;5076350;28;20197;-70
2022/06/04 11:24:06;;;;;;;6.95;6.28;;;23.70;90.50;;;;;;5075701;28;20616;-71
2022/06/04 11:26:39;;;;;;;8.00;6.10;;;23.80;90.50;;;;;;5075528;28;20201;-72
2022/06/04 11:29:07;;;;;;;9.68;6.35;;;23.90;90.40;;;;;;5068186;28;20229;-71
2022/06/04 11:31:47;;;;;;;10.07;6.78;;;23.90;90.10;;;;;;5076606;28;20655;-71
2022/06/04 11:34:50;;;;;;;9.50;5.88;;;24.00;90.20;;;;;;5075788;28;20200;-69
2022/06/04 11:37:29;;;;;;;6.20;5.63;;;24.00;90.00;;;;;;5076334;28;20209;-71
2022/06/04 11:40:10;;;;;;;7.78;5.53;;;24.00;89.70;;;;;;5075369;28;20280;-72
2022/06/04 11:42:57;;;;;;;6.90;6.00;;;24.00;89.70;;;;;;5074050;28;20197;-72
2022/06/04 11:45:45;;;;;;;7.57;5.75;;;24.00;90.10;;;;;;5069835;28;20202;-71
2022/06/04 11:48:27;;;;;;;7.35;5.78;;;24.30;90.30;;;;;;5075029;28;20242;-71
2022/06/04 11:51:15;;;;;;;8.13;6.35;;;24.50;90.60;;;;;;5072723;28;20251;-71
2022/06/04 11:53:51;;;;;;;10.25;6.10;;;24.90;90.20;;;;;;5073672;28;20768;-73
2022/06/04 11:56:26;;;;;;;8.75;6.60;;;25.40;88.60;;;;;;5075334;28;20524;-71
2022/06/04 11:59:19;;;;;;;8.27;5.45;;;25.70;87.80;;;;;;5075131;28;20300;-69
2022/06/04 12:01:52;;;;;;;8.27;5.38;;;26.10;86.90;;;;;;5077431;28;20205;-70
2022/06/04 12:04:27;;;;;;;6.47;5.55;;;26.50;86.00;;;;;;5076535;28;20213;-69
2022/06/04 12:07:01;;;;;;;7.15;4.38;;;26.80;84.30;;;;;;5071931;28;20211;-68
2022/06/04 12:09:36;;;;;;;6.18;4.40;;;27.00;82.30;;;;;;5071977;28;20209;-70
2022/06/04 12:12:11;;;;;;;6.63;4.10;;;27.10;80.00;;;;;;5076577;28;20219;-71
2022/06/04 12:14:43;;;;;;;4.55;3.92;;;26.90;78.20;;;;;;5072399;28;20496;-68
2022/06/04 12:17:14;;;;;;;7.22;4.72;;;26.90;78.50;;;;;;5066123;28;20245;-69
2022/06/04 12:25:36;;;;;;;5.43;3.95;;;27.10;78.60;;;;;;5079058;28;20300;-70
2022/06/04 12:28:04;;;;;;;6.95;3.50;;;27.40;78.00;;;;;;5069871;28;20635;-69
2022/06/04 12:30:38;;;;;;;6.28;3.75;;;27.50;75.80;;;;;;5073103;28;20240;-69
2022/06/04 12:33:11;;;;;;;3.65;3.35;;;27.70;74.40;;;;;;5074841;28;20203;-68
2022/06/04 12:35:37;;;;;;;6.53;3.80;;;27.70;73.40;;;;;;5074982;28;20300;-68
2022/06/04 12:38:13;;;;;;;4.25;3.88;;;27.60;72.50;;;;;;5073674;28;20212;-70
2022/06/04 12:40:42;;;;;;;4.47;4.05;;;27.60;72.00;;;;;;5081648;28;20193;-68
2022/06/04 12:43:28;;;;;;;5.00;4.03;;;27.60;71.70;;;;;;5077192;28;20201;-69
2022/06/04 12:46:08;;;;;;;4.15;3.80;;;27.60;71.70;;;;;;5084064;28;20197;-68
2022/06/04 12:48:53;;;;;;;6.30;3.90;;;27.70;71.70;;;;;;5084611;28;20307;-68
2022/06/04 12:51:36;;;;;;;4.63;3.85;;;27.70;70.80;;;;;;5084789;28;20208;-68
2022/06/04 12:54:08;;;;;;;5.07;3.90;;;27.70;70.30;;;;;;5085494;28;20207;-68
2022/06/04 12:56:39;;;;;;;6.18;3.70;;;27.80;70.20;;;;;;5086805;28;20295;-68
2022/06/04 12:59:23;;;;;;;5.20;3.70;;;27.70;70.50;;;;;;5086905;28;20197;-68
2022/06/04 13:01:50;;;;;;;6.30;4.15;;;27.90;70.70;;;;;;5092042;28;20193;-68
2022/06/04 13:04:25;;;;;;;6.40;4.75;;;28.10;69.50;;;;;;5082100;28;20291;-67
2022/06/04 13:06:57;;;;;;;4.28;3.60;;;28.10;69.10;;;;;;5081560;28;20204;-68
2022/06/04 13:09:53;;;;;;;4.72;3.45;;;28.20;68.30;;;;;;5086979;28;20193;-67
2022/06/04 13:12:33;;;;;;;8.82;3.70;;;28.30;65.60;;;;;;5088201;28;20671;-68
2022/06/04 13:15:13;;;;;;;3.78;3.40;;;28.50;66.00;;;;;;5081254;28;20204;-67
2022/06/04 13:17:44;;;;;;;5.30;3.10;;;28.70;65.50;;;;;;5021537;28;20202;-69
2022/06/04 13:20:35;;;;;;;4.50;3.53;;;28.80;65.10;;;;;;5037511;28;20570;-68
2022/06/04 13:23:09;;;;;;;4.93;3.40;;;29.00;64.70;;;;;;5034572;28;20217;-67
2022/06/04 13:25:51;;;;;;;7.47;3.70;;;29.10;64.60;;;;;;5042972;28;20208;-69
2022/06/04 13:28:27;;;;;;;4.75;4.22;;;29.10;64.80;;;;;;5037122;28;20265;-68
2022/06/04 13:30:54;;;;;;;6.55;3.78;;;29.30;65.00;;;;;;5039889;28;20669;-69